sensor_id;sensor_type;location;lat;lon;timestamp;P1;durP1;ratioP1;P2;durP2;ratioP2
44048;SDS011;29717;47.028;15.470;2022-08-01T00:01:31;4.50;;;3.30;;
44048;SDS011;29717;47.028;15.470;2022-08-01T00:03:58;3.35;;;3.15;;
44048;SDS011;29717;47.028;15.470;2022-08-01T00:06:25;4.13;;;3.63;;
44048;SDS011;29717;47.028;15.470;2022-08-01T00:08:53;3.95;;;3.60;;
44048;SDS011;29717;47.028;15.470;2022-08-01T00:11:20;4.00;;;3.70;;
44048;SDS011;29717;47.028;15.470;2022-08-01T00:13:47;4.07;;;3.42;;
44048;SDS011;29717;47.028;15.470;2022-08-01T00:16:14;6.43;;;3.75;;
44048;SDS011;29717;47.028;15.470;2022-08-01T00:18:42;3.63;;;3.30;;
44048;SDS011;29717;47.028;15.470;2022-08-01T00:21:08;8.88;;;3.78;;
44048;SDS011;29717;47.028;15.470;2022-08-01T00:23:35;5.20;;;3.50;;
44048;SDS011;29717;47.028;15.470;2022-08-01T00:26:04;3.53;;;3.15;;
44048;SDS011;29717;47.028;15.470;2022-08-01T00:28:31;3.67;;;3.30;;
44048;SDS011;29717;47.028;15.470;2022-08-01T00:30:58;5.30;;;4.03;;
44048;SDS011;29717;47.028;15.470;2022-08-01T00:33:25;3.60;;;3.25;;
44048;SDS011;29717;47.028;15.470;2022-08-01T00:35:52;3.70;;;3.40;;
44048;SDS011;29717;47.028;15.470;2022-08-01T00:38:18;3.55;;;3.25;;
44048;SDS011;29717;47.028;15.470;2022-08-01T00:40:45;4.03;;;3.63;;
44048;SDS011;29717;47.028;15.470;2022-08-01T00:43:13;3.70;;;3.40;;
44048;SDS011;29717;47.028;15.470;2022-08-01T00:45:40;4.40;;;3.60;;
44048;SDS011;29717;47.028;15.470;2022-08-01T00:48:07;4.20;;;3.80;;
44048;SDS011;29717;47.028;15.470;2022-08-01T00:50:34;5.47;;;3.90;;
44048;SDS011;29717;47.028;15.470;2022-08-01T00:53:01;4.00;;;3.60;;
44048;SDS011;29717;47.028;15.470;2022-08-01T00:55:28;4.32;;;3.80;;
44048;SDS011;29717;47.028;15.470;2022-08-01T00:57:55;3.67;;;3.38;;
44048;SDS011;29717;47.028;15.470;2022-08-01T01:00:24;4.00;;;3.70;;
44048;SDS011;29717;47.028;15.470;2022-08-01T01:02:51;4.25;;;3.85;;
44048;SDS011;29717;47.028;15.470;2022-08-01T01:05:18;4.05;;;3.72;;
44048;SDS011;29717;47.028;15.470;2022-08-01T01:07:47;4.57;;;3.83;;
44048;SDS011;29717;47.028;15.470;2022-08-01T01:10:16;4.20;;;3.80;;
44048;SDS011;29717;47.028;15.470;2022-08-01T01:12:46;4.13;;;3.80;;
44048;SDS011;29717;47.028;15.470;2022-08-01T01:15:15;4.07;;;3.70;;
44048;SDS011;29717;47.028;15.470;2022-08-01T01:17:52;4.00;;;3.60;;
44048;SDS011;29717;47.028;15.470;2022-08-01T01:20:22;4.35;;;3.70;;
44048;SDS011;29717;47.028;15.470;2022-08-01T01:23:05;4.40;;;4.00;;
44048;SDS011;29717;47.028;15.470;2022-08-01T01:25:41;4.10;;;3.70;;
44048;SDS011;29717;47.028;15.470;2022-08-01T01:28:15;3.78;;;3.47;;
44048;SDS011;29717;47.028;15.470;2022-08-01T01:30:46;3.85;;;3.55;;
44048;SDS011;29717;47.028;15.470;2022-08-01T01:33:15;3.97;;;3.67;;
44048;SDS011;29717;47.028;15.470;2022-08-01T01:35:45;4.38;;;3.88;;
44048;SDS011;29717;47.028;15.470;2022-08-01T01:38:14;3.95;;;3.47;;
44048;SDS011;29717;47.028;15.470;2022-08-01T01:40:42;3.92;;;3.47;;
44048;SDS011;29717;47.028;15.470;2022-08-01T01:43:10;4.20;;;3.85;;
44048;SDS011;29717;47.028;15.470;2022-08-01T01:45:38;5.55;;;3.65;;
44048;SDS011;29717;47.028;15.470;2022-08-01T01:48:16;4.57;;;4.15;;
44048;SDS011;29717;47.028;15.470;2022-08-01T01:53:50;4.38;;;4.05;;
44048;SDS011;29717;47.028;15.470;2022-08-01T01:56:35;4.43;;;4.03;;
44048;SDS011;29717;47.028;15.470;2022-08-01T01:59:21;4.40;;;4.00;;
44048;SDS011;29717;47.028;15.470;2022-08-01T02:02:10;4.57;;;4.18;;
44048;SDS011;29717;47.028;15.470;2022-08-01T02:10:43;6.10;;;3.90;;
44048;SDS011;29717;47.028;15.470;2022-08-01T02:16:33;5.93;;;3.92;;
44048;SDS011;29717;47.028;15.470;2022-08-01T02:19:19;4.40;;;3.95;;
44048;SDS011;29717;47.028;15.470;2022-08-01T02:40:20;5.20;;;4.75;;
44048;SDS011;29717;47.028;15.470;2022-08-01T02:45:45;4.63;;;4.18;;
44048;SDS011;29717;47.028;15.470;2022-08-01T02:48:32;6.15;;;4.55;;
44048;SDS011;29717;47.028;15.470;2022-08-01T02:51:17;5.00;;;4.30;;
44048;SDS011;29717;47.028;15.470;2022-08-01T03:00:23;4.45;;;4.05;;
44048;SDS011;29717;47.028;15.470;2022-08-01T03:03:19;5.05;;;3.75;;
44048;SDS011;29717;47.028;15.470;2022-08-01T03:05:46;4.75;;;4.00;;
44048;SDS011;29717;47.028;15.470;2022-08-01T03:08:15;3.80;;;3.50;;
44048;SDS011;29717;47.028;15.470;2022-08-01T03:10:44;5.07;;;4.00;;
44048;SDS011;29717;47.028;15.470;2022-08-01T03:13:21;5.43;;;3.72;;
44048;SDS011;29717;47.028;15.470;2022-08-01T03:15:59;4.38;;;3.97;;
44048;SDS011;29717;47.028;15.470;2022-08-01T03:18:27;4.90;;;3.65;;
44048;SDS011;29717;47.028;15.470;2022-08-01T03:20:55;7.05;;;4.45;;
44048;SDS011;29717;47.028;15.470;2022-08-01T03:23:22;5.78;;;4.25;;
44048;SDS011;29717;47.028;15.470;2022-08-01T03:25:50;4.45;;;4.05;;
44048;SDS011;29717;47.028;15.470;2022-08-01T03:28:17;4.35;;;3.80;;
44048;SDS011;29717;47.028;15.470;2022-08-01T03:30:44;4.22;;;3.92;;
44048;SDS011;29717;47.028;15.470;2022-08-01T03:33:13;4.85;;;4.38;;
44048;SDS011;29717;47.028;15.470;2022-08-01T03:35:42;7.07;;;4.20;;
44048;SDS011;29717;47.028;15.470;2022-08-01T03:38:11;4.60;;;4.30;;
44048;SDS011;29717;47.028;15.470;2022-08-01T03:40:40;7.43;;;4.20;;
44048;SDS011;29717;47.028;15.470;2022-08-01T03:43:11;4.57;;;4.18;;
44048;SDS011;29717;47.028;15.470;2022-08-01T03:45:39;4.45;;;4.15;;
44048;SDS011;29717;47.028;15.470;2022-08-01T03:48:08;5.07;;;4.57;;
44048;SDS011;29717;47.028;15.470;2022-08-01T03:50:37;4.43;;;4.03;;
44048;SDS011;29717;47.028;15.470;2022-08-01T03:53:06;4.38;;;4.03;;
44048;SDS011;29717;47.028;15.470;2022-08-01T03:55:42;4.90;;;4.15;;
44048;SDS011;29717;47.028;15.470;2022-08-01T03:58:10;4.55;;;4.20;;
44048;SDS011;29717;47.028;15.470;2022-08-01T04:00:38;4.30;;;3.90;;
44048;SDS011;29717;47.028;15.470;2022-08-01T04:03:06;5.50;;;4.80;;
44048;SDS011;29717;47.028;15.470;2022-08-01T04:05:33;5.40;;;4.22;;
44048;SDS011;29717;47.028;15.470;2022-08-01T04:08:02;4.97;;;4.03;;
44048;SDS011;29717;47.028;15.470;2022-08-01T04:10:29;4.80;;;4.40;;
44048;SDS011;29717;47.028;15.470;2022-08-01T04:12:56;4.20;;;3.80;;
44048;SDS011;29717;47.028;15.470;2022-08-01T04:15:23;4.70;;;4.38;;
44048;SDS011;29717;47.028;15.470;2022-08-01T04:17:50;4.88;;;4.45;;
44048;SDS011;29717;47.028;15.470;2022-08-01T04:20:17;6.30;;;4.60;;
44048;SDS011;29717;47.028;15.470;2022-08-01T04:22:47;5.22;;;4.82;;
44048;SDS011;29717;47.028;15.470;2022-08-01T04:25:17;5.38;;;4.63;;
44048;SDS011;29717;47.028;15.470;2022-08-01T04:27:46;6.38;;;4.72;;
44048;SDS011;29717;47.028;15.470;2022-08-01T04:30:15;5.15;;;4.32;;
44048;SDS011;29717;47.028;15.470;2022-08-01T04:32:43;5.45;;;4.45;;
44048;SDS011;29717;47.028;15.470;2022-08-01T04:35:11;5.30;;;4.30;;
44048;SDS011;29717;47.028;15.470;2022-08-01T04:37:39;4.93;;;4.03;;
44048;SDS011;29717;47.028;15.470;2022-08-01T04:40:07;5.07;;;4.30;;
44048;SDS011;29717;47.028;15.470;2022-08-01T04:42:36;9.55;;;5.18;;
44048;SDS011;29717;47.028;15.470;2022-08-01T04:45:03;8.02;;;4.50;;
44048;SDS011;29717;47.028;15.470;2022-08-01T04:47:30;6.82;;;4.18;;
44048;SDS011;29717;47.028;15.470;2022-08-01T04:49:58;7.32;;;5.00;;
44048;SDS011;29717;47.028;15.470;2022-08-01T04:52:32;6.57;;;5.22;;
44048;SDS011;29717;47.028;15.470;2022-08-01T04:54:59;9.00;;;5.22;;
44048;SDS011;29717;47.028;15.470;2022-08-01T04:57:25;5.53;;;4.78;;
44048;SDS011;29717;47.028;15.470;2022-08-01T04:59:54;6.50;;;5.72;;
44048;SDS011;29717;47.028;15.470;2022-08-01T05:02:23;9.30;;;5.88;;
44048;SDS011;29717;47.028;15.470;2022-08-01T05:04:52;9.60;;;7.07;;
44048;SDS011;29717;47.028;15.470;2022-08-01T05:07:20;9.35;;;7.20;;
44048;SDS011;29717;47.028;15.470;2022-08-01T05:12:16;9.82;;;7.80;;
44048;SDS011;29717;47.028;15.470;2022-08-01T05:14:43;9.52;;;7.88;;
44048;SDS011;29717;47.028;15.470;2022-08-01T05:17:12;8.35;;;7.45;;
44048;SDS011;29717;47.028;15.470;2022-08-01T05:19:39;11.05;;;8.48;;
44048;SDS011;29717;47.028;15.470;2022-08-01T05:22:08;8.98;;;8.05;;
44048;SDS011;29717;47.028;15.470;2022-08-01T05:24:36;9.07;;;7.43;;
44048;SDS011;29717;47.028;15.470;2022-08-01T05:27:03;11.05;;;5.85;;
44048;SDS011;29717;47.028;15.470;2022-08-01T05:29:31;13.88;;;5.45;;
44048;SDS011;29717;47.028;15.470;2022-08-01T05:31:58;5.60;;;5.10;;
44048;SDS011;29717;47.028;15.470;2022-08-01T05:34:27;7.68;;;4.88;;
44048;SDS011;29717;47.028;15.470;2022-08-01T05:36:54;7.47;;;4.80;;
44048;SDS011;29717;47.028;15.470;2022-08-01T05:39:21;6.13;;;4.45;;
44048;SDS011;29717;47.028;15.470;2022-08-01T05:41:48;5.65;;;4.00;;
44048;SDS011;29717;47.028;15.470;2022-08-01T05:44:16;4.75;;;4.10;;
44048;SDS011;29717;47.028;15.470;2022-08-01T05:46:42;5.00;;;4.07;;
44048;SDS011;29717;47.028;15.470;2022-08-01T05:52:03;6.15;;;3.90;;
44048;SDS011;29717;47.028;15.470;2022-08-01T05:54:30;6.15;;;4.43;;
44048;SDS011;29717;47.028;15.470;2022-08-01T05:56:57;4.72;;;3.65;;
44048;SDS011;29717;47.028;15.470;2022-08-01T05:59:27;6.28;;;4.15;;
44048;SDS011;29717;47.028;15.470;2022-08-01T06:01:53;5.38;;;4.43;;
44048;SDS011;29717;47.028;15.470;2022-08-01T06:04:20;6.63;;;4.15;;
44048;SDS011;29717;47.028;15.470;2022-08-01T06:06:49;5.75;;;4.00;;
44048;SDS011;29717;47.028;15.470;2022-08-01T06:09:36;5.70;;;4.22;;
44048;SDS011;29717;47.028;15.470;2022-08-01T06:12:19;5.43;;;4.10;;
44048;SDS011;29717;47.028;15.470;2022-08-01T06:15:00;5.60;;;4.07;;
44048;SDS011;29717;47.028;15.470;2022-08-01T06:17:54;7.28;;;4.07;;
44048;SDS011;29717;47.028;15.470;2022-08-01T06:20:21;6.75;;;4.45;;
44048;SDS011;29717;47.028;15.470;2022-08-01T06:22:48;9.68;;;4.60;;
44048;SDS011;29717;47.028;15.470;2022-08-01T06:25:16;8.98;;;4.50;;
44048;SDS011;29717;47.028;15.470;2022-08-01T06:27:43;8.25;;;4.88;;
44048;SDS011;29717;47.028;15.470;2022-08-01T06:30:10;9.43;;;5.03;;
44048;SDS011;29717;47.028;15.470;2022-08-01T06:32:37;7.38;;;4.38;;
44048;SDS011;29717;47.028;15.470;2022-08-01T06:35:06;6.50;;;3.90;;
44048;SDS011;29717;47.028;15.470;2022-08-01T06:37:33;7.70;;;4.45;;
44048;SDS011;29717;47.028;15.470;2022-08-01T06:40:00;7.55;;;3.83;;
44048;SDS011;29717;47.028;15.470;2022-08-01T06:42:28;5.47;;;3.83;;
44048;SDS011;29717;47.028;15.470;2022-08-01T06:44:57;7.15;;;3.97;;
44048;SDS011;29717;47.028;15.470;2022-08-01T06:47:23;6.60;;;4.18;;
44048;SDS011;29717;47.028;15.470;2022-08-01T06:49:50;8.05;;;4.05;;
44048;SDS011;29717;47.028;15.470;2022-08-01T06:52:18;7.35;;;3.90;;
44048;SDS011;29717;47.028;15.470;2022-08-01T06:54:45;6.00;;;3.92;;
44048;SDS011;29717;47.028;15.470;2022-08-01T06:57:12;5.82;;;4.30;;
44048;SDS011;29717;47.028;15.470;2022-08-01T06:59:39;6.82;;;4.00;;
44048;SDS011;29717;47.028;15.470;2022-08-01T07:02:06;5.00;;;4.20;;
44048;SDS011;29717;47.028;15.470;2022-08-01T07:04:33;5.22;;;3.80;;
44048;SDS011;29717;47.028;15.470;2022-08-01T07:07:00;4.95;;;3.88;;
44048;SDS011;29717;47.028;15.470;2022-08-01T07:09:29;5.75;;;4.43;;
44048;SDS011;29717;47.028;15.470;2022-08-01T07:11:55;4.55;;;4.07;;
44048;SDS011;29717;47.028;15.470;2022-08-01T07:14:23;13.13;;;5.07;;
44048;SDS011;29717;47.028;15.470;2022-08-01T07:16:50;7.35;;;4.47;;
44048;SDS011;29717;47.028;15.470;2022-08-01T07:19:17;4.22;;;3.83;;
44048;SDS011;29717;47.028;15.470;2022-08-01T07:21:44;6.78;;;4.15;;
44048;SDS011;29717;47.028;15.470;2022-08-01T07:24:11;9.82;;;4.55;;
44048;SDS011;29717;47.028;15.470;2022-08-01T07:26:41;5.85;;;3.88;;
44048;SDS011;29717;47.028;15.470;2022-08-01T07:29:08;7.18;;;4.18;;
44048;SDS011;29717;47.028;15.470;2022-08-01T07:31:35;5.60;;;4.32;;
44048;SDS011;29717;47.028;15.470;2022-08-01T07:34:02;5.35;;;4.20;;
44048;SDS011;29717;47.028;15.470;2022-08-01T07:36:29;10.98;;;4.60;;
44048;SDS011;29717;47.028;15.470;2022-08-01T07:38:56;9.18;;;4.82;;
44048;SDS011;29717;47.028;15.470;2022-08-01T07:41:23;5.30;;;4.45;;
44048;SDS011;29717;47.028;15.470;2022-08-01T07:43:51;5.95;;;4.53;;
44048;SDS011;29717;47.028;15.470;2022-08-01T07:46:18;9.95;;;4.32;;
44048;SDS011;29717;47.028;15.470;2022-08-01T07:48:44;7.43;;;4.32;;
44048;SDS011;29717;47.028;15.470;2022-08-01T07:51:11;13.13;;;4.30;;
44048;SDS011;29717;47.028;15.470;2022-08-01T07:53:38;7.03;;;3.92;;
44048;SDS011;29717;47.028;15.470;2022-08-01T07:56:05;5.05;;;3.90;;
44048;SDS011;29717;47.028;15.470;2022-08-01T07:58:32;7.13;;;3.58;;
44048;SDS011;29717;47.028;15.470;2022-08-01T08:01:01;7.03;;;3.88;;
44048;SDS011;29717;47.028;15.470;2022-08-01T08:03:28;6.60;;;3.20;;
44048;SDS011;29717;47.028;15.470;2022-08-01T08:05:55;6.85;;;3.45;;
44048;SDS011;29717;47.028;15.470;2022-08-01T08:08:22;10.80;;;3.55;;
44048;SDS011;29717;47.028;15.470;2022-08-01T08:10:49;8.00;;;3.30;;
44048;SDS011;29717;47.028;15.470;2022-08-01T08:13:16;4.53;;;2.97;;
44048;SDS011;29717;47.028;15.470;2022-08-01T08:15:43;7.40;;;3.42;;
44048;SDS011;29717;47.028;15.470;2022-08-01T08:18:11;4.30;;;3.25;;
44048;SDS011;29717;47.028;15.470;2022-08-01T08:20:38;8.48;;;3.25;;
44048;SDS011;29717;47.028;15.470;2022-08-01T08:23:04;6.30;;;3.25;;
44048;SDS011;29717;47.028;15.470;2022-08-01T08:25:52;5.88;;;3.22;;
44048;SDS011;29717;47.028;15.470;2022-08-01T08:28:19;6.90;;;3.15;;
44048;SDS011;29717;47.028;15.470;2022-08-01T08:30:45;9.63;;;3.05;;
44048;SDS011;29717;47.028;15.470;2022-08-01T08:33:14;6.47;;;3.10;;
44048;SDS011;29717;47.028;15.470;2022-08-01T08:35:40;8.80;;;3.28;;
44048;SDS011;29717;47.028;15.470;2022-08-01T08:38:07;7.55;;;3.13;;
44048;SDS011;29717;47.028;15.470;2022-08-01T08:40:34;7.28;;;3.25;;
44048;SDS011;29717;47.028;15.470;2022-08-01T08:43:03;6.80;;;3.22;;
44048;SDS011;29717;47.028;15.470;2022-08-01T08:45:31;3.40;;;2.78;;
44048;SDS011;29717;47.028;15.470;2022-08-01T08:47:57;6.40;;;3.10;;
44048;SDS011;29717;47.028;15.470;2022-08-01T08:50:27;4.63;;;2.75;;
44048;SDS011;29717;47.028;15.470;2022-08-01T08:52:54;8.38;;;3.10;;
44048;SDS011;29717;47.028;15.470;2022-08-01T08:55:21;7.53;;;3.03;;
44048;SDS011;29717;47.028;15.470;2022-08-01T08:57:49;4.30;;;2.92;;
44048;SDS011;29717;47.028;15.470;2022-08-01T09:00:16;5.85;;;2.78;;
44048;SDS011;29717;47.028;15.470;2022-08-01T09:02:44;6.70;;;2.88;;
44048;SDS011;29717;47.028;15.470;2022-08-01T09:05:11;3.63;;;2.50;;
44048;SDS011;29717;47.028;15.470;2022-08-01T09:07:40;3.92;;;2.97;;
44048;SDS011;29717;47.028;15.470;2022-08-01T09:10:07;5.22;;;2.50;;
44048;SDS011;29717;47.028;15.470;2022-08-01T09:12:35;5.70;;;2.63;;
44048;SDS011;29717;47.028;15.470;2022-08-01T09:15:03;2.90;;;2.60;;
44048;SDS011;29717;47.028;15.470;2022-08-01T09:17:38;2.33;;;2.13;;
44048;SDS011;29717;47.028;15.470;2022-08-01T09:20:05;4.57;;;2.35;;
44048;SDS011;29717;47.028;15.470;2022-08-01T09:22:33;3.65;;;2.15;;
44048;SDS011;29717;47.028;15.470;2022-08-01T09:25:06;4.18;;;1.88;;
44048;SDS011;29717;47.028;15.470;2022-08-01T09:27:34;2.47;;;1.80;;
44048;SDS011;29717;47.028;15.470;2022-08-01T09:30:10;1.85;;;1.65;;
44048;SDS011;29717;47.028;15.470;2022-08-01T09:32:51;1.90;;;1.40;;
44048;SDS011;29717;47.028;15.470;2022-08-01T09:35:22;1.88;;;1.45;;
44048;SDS011;29717;47.028;15.470;2022-08-01T09:37:49;4.50;;;1.73;;
44048;SDS011;29717;47.028;15.470;2022-08-01T09:40:18;2.53;;;1.45;;
44048;SDS011;29717;47.028;15.470;2022-08-01T09:42:45;1.95;;;1.20;;
44048;SDS011;29717;47.028;15.470;2022-08-01T09:45:31;4.88;;;1.38;;
44048;SDS011;29717;47.028;15.470;2022-08-01T09:47:57;2.28;;;1.23;;
44048;SDS011;29717;47.028;15.470;2022-08-01T09:50:38;3.03;;;1.58;;
44048;SDS011;29717;47.028;15.470;2022-08-01T09:53:05;2.30;;;1.70;;
44048;SDS011;29717;47.028;15.470;2022-08-01T09:55:33;2.45;;;1.33;;
44048;SDS011;29717;47.028;15.470;2022-08-01T09:58:00;1.50;;;1.40;;
44048;SDS011;29717;47.028;15.470;2022-08-01T10:00:29;3.13;;;1.50;;
44048;SDS011;29717;47.028;15.470;2022-08-01T10:02:56;2.17;;;1.15;;
44048;SDS011;29717;47.028;15.470;2022-08-01T10:05:33;2.92;;;1.10;;
44048;SDS011;29717;47.028;15.470;2022-08-01T10:08:01;3.45;;;1.42;;
44048;SDS011;29717;47.028;15.470;2022-08-01T10:10:28;2.60;;;1.25;;
44048;SDS011;29717;47.028;15.470;2022-08-01T10:12:57;1.67;;;1.30;;
44048;SDS011;29717;47.028;15.470;2022-08-01T10:15:24;2.10;;;1.20;;
44048;SDS011;29717;47.028;15.470;2022-08-01T10:17:53;1.48;;;1.20;;
44048;SDS011;29717;47.028;15.470;2022-08-01T10:20:20;3.95;;;1.60;;
44048;SDS011;29717;47.028;15.470;2022-08-01T10:22:47;2.30;;;1.40;;
44048;SDS011;29717;47.028;15.470;2022-08-01T10:25:15;1.45;;;1.30;;
44048;SDS011;29717;47.028;15.470;2022-08-01T10:27:43;2.92;;;1.50;;
44048;SDS011;29717;47.028;15.470;2022-08-01T10:30:13;1.55;;;1.30;;
44048;SDS011;29717;47.028;15.470;2022-08-01T10:32:39;2.70;;;1.23;;
44048;SDS011;29717;47.028;15.470;2022-08-01T10:35:08;2.60;;;1.65;;
44048;SDS011;29717;47.028;15.470;2022-08-01T10:37:40;1.90;;;1.35;;
44048;SDS011;29717;47.028;15.470;2022-08-01T10:40:07;2.55;;;1.30;;
44048;SDS011;29717;47.028;15.470;2022-08-01T10:42:34;3.97;;;1.38;;
44048;SDS011;29717;47.028;15.470;2022-08-01T10:45:01;5.20;;;1.38;;
44048;SDS011;29717;47.028;15.470;2022-08-01T10:47:32;1.50;;;1.30;;
44048;SDS011;29717;47.028;15.470;2022-08-01T10:50:03;3.28;;;1.60;;
44048;SDS011;29717;47.028;15.470;2022-08-01T10:52:30;1.45;;;1.35;;
44048;SDS011;29717;47.028;15.470;2022-08-01T10:55:03;6.28;;;1.77;;
44048;SDS011;29717;47.028;15.470;2022-08-01T10:57:40;1.98;;;1.25;;
44048;SDS011;29717;47.028;15.470;2022-08-01T11:00:08;3.63;;;1.38;;
44048;SDS011;29717;47.028;15.470;2022-08-01T11:02:36;3.28;;;1.42;;
44048;SDS011;29717;47.028;15.470;2022-08-01T11:07:46;1.67;;;1.23;;
44048;SDS011;29717;47.028;15.470;2022-08-01T11:10:17;2.38;;;1.50;;
44048;SDS011;29717;47.028;15.470;2022-08-01T11:12:46;1.70;;;1.45;;
44048;SDS011;29717;47.028;15.470;2022-08-01T11:15:17;2.45;;;1.50;;
44048;SDS011;29717;47.028;15.470;2022-08-01T11:17:51;1.63;;;1.40;;
44048;SDS011;29717;47.028;15.470;2022-08-01T11:20:18;2.45;;;1.38;;
44048;SDS011;29717;47.028;15.470;2022-08-01T11:28:19;1.83;;;1.42;;
44048;SDS011;29717;47.028;15.470;2022-08-01T11:30:49;3.95;;;1.50;;
44048;SDS011;29717;47.028;15.470;2022-08-01T11:33:18;2.85;;;1.70;;
44048;SDS011;29717;47.028;15.470;2022-08-01T11:38:27;1.42;;;1.17;;
44048;SDS011;29717;47.028;15.470;2022-08-01T11:41:09;4.38;;;1.30;;
44048;SDS011;29717;47.028;15.470;2022-08-01T11:43:36;2.53;;;1.30;;
44048;SDS011;29717;47.028;15.470;2022-08-01T11:51:48;1.95;;;1.33;;
44048;SDS011;29717;47.028;15.470;2022-08-01T11:54:15;2.55;;;1.27;;
44048;SDS011;29717;47.028;15.470;2022-08-01T11:56:42;4.57;;;1.20;;
44048;SDS011;29717;47.028;15.470;2022-08-01T11:59:09;2.15;;;1.33;;
44048;SDS011;29717;47.028;15.470;2022-08-01T12:01:36;2.15;;;1.20;;
44048;SDS011;29717;47.028;15.470;2022-08-01T12:04:03;2.33;;;1.17;;
44048;SDS011;29717;47.028;15.470;2022-08-01T12:06:30;2.60;;;1.20;;
44048;SDS011;29717;47.028;15.470;2022-08-01T12:11:40;3.70;;;1.20;;
44048;SDS011;29717;47.028;15.470;2022-08-01T12:14:07;2.63;;;1.00;;
44048;SDS011;29717;47.028;15.470;2022-08-01T12:16:34;1.55;;;1.10;;
44048;SDS011;29717;47.028;15.470;2022-08-01T12:19:01;1.45;;;1.08;;
44048;SDS011;29717;47.028;15.470;2022-08-01T12:21:28;2.17;;;0.90;;
44048;SDS011;29717;47.028;15.470;2022-08-01T12:24:04;1.95;;;0.90;;
44048;SDS011;29717;47.028;15.470;2022-08-01T12:26:41;2.08;;;1.17;;
44048;SDS011;29717;47.028;15.470;2022-08-01T12:29:08;1.42;;;1.10;;
44048;SDS011;29717;47.028;15.470;2022-08-01T12:31:35;1.77;;;0.73;;
44048;SDS011;29717;47.028;15.470;2022-08-01T12:36:56;2.20;;;1.00;;
44048;SDS011;29717;47.028;15.470;2022-08-01T12:39:28;1.63;;;0.77;;
44048;SDS011;29717;47.028;15.470;2022-08-01T12:41:57;2.63;;;0.80;;
44048;SDS011;29717;47.028;15.470;2022-08-01T12:44:23;1.77;;;0.98;;
44048;SDS011;29717;47.028;15.470;2022-08-01T12:46:50;2.00;;;1.20;;
44048;SDS011;29717;47.028;15.470;2022-08-01T12:49:18;1.27;;;0.80;;
44048;SDS011;29717;47.028;15.470;2022-08-01T12:51:45;6.32;;;1.00;;
44048;SDS011;29717;47.028;15.470;2022-08-01T12:54:12;2.45;;;0.80;;
44048;SDS011;29717;47.028;15.470;2022-08-01T12:56:38;3.30;;;0.85;;
44048;SDS011;29717;47.028;15.470;2022-08-01T12:59:20;1.92;;;1.00;;
44048;SDS011;29717;47.028;15.470;2022-08-01T13:01:48;1.30;;;1.00;;
44048;SDS011;29717;47.028;15.470;2022-08-01T13:04:15;1.58;;;0.93;;
44048;SDS011;29717;47.028;15.470;2022-08-01T13:06:42;1.13;;;1.00;;
44048;SDS011;29717;47.028;15.470;2022-08-01T13:09:09;1.00;;;0.90;;
44048;SDS011;29717;47.028;15.470;2022-08-01T13:11:37;0.95;;;0.80;;
44048;SDS011;29717;47.028;15.470;2022-08-01T13:14:04;1.52;;;0.80;;
44048;SDS011;29717;47.028;15.470;2022-08-01T13:16:33;3.85;;;1.17;;
44048;SDS011;29717;47.028;15.470;2022-08-01T13:19:11;0.98;;;0.88;;
44048;SDS011;29717;47.028;15.470;2022-08-01T13:21:38;1.88;;;0.90;;
44048;SDS011;29717;47.028;15.470;2022-08-01T13:24:05;1.50;;;0.90;;
44048;SDS011;29717;47.028;15.470;2022-08-01T13:26:41;2.80;;;0.90;;
44048;SDS011;29717;47.028;15.470;2022-08-01T13:29:09;2.83;;;1.00;;
44048;SDS011;29717;47.028;15.470;2022-08-01T13:31:38;2.05;;;1.00;;
44048;SDS011;29717;47.028;15.470;2022-08-01T13:34:05;2.65;;;0.90;;
44048;SDS011;29717;47.028;15.470;2022-08-01T13:36:32;1.13;;;0.93;;
44048;SDS011;29717;47.028;15.470;2022-08-01T13:38:59;1.40;;;0.95;;
44048;SDS011;29717;47.028;15.470;2022-08-01T13:41:43;1.25;;;1.00;;
44048;SDS011;29717;47.028;15.470;2022-08-01T13:44:10;1.23;;;0.98;;
44048;SDS011;29717;47.028;15.470;2022-08-01T13:46:39;1.13;;;0.90;;
44048;SDS011;29717;47.028;15.470;2022-08-01T13:49:06;6.15;;;1.40;;
44048;SDS011;29717;47.028;15.470;2022-08-01T13:51:33;4.80;;;1.40;;
44048;SDS011;29717;47.028;15.470;2022-08-01T13:54:01;1.90;;;1.40;;
44048;SDS011;29717;47.028;15.470;2022-08-01T13:56:28;2.10;;;1.40;;
44048;SDS011;29717;47.028;15.470;2022-08-01T13:58:55;3.00;;;1.50;;
44048;SDS011;29717;47.028;15.470;2022-08-01T14:01:22;1.55;;;1.38;;
44048;SDS011;29717;47.028;15.470;2022-08-01T14:03:50;2.92;;;1.50;;
44048;SDS011;29717;47.028;15.470;2022-08-01T14:06:18;1.67;;;1.50;;
44048;SDS011;29717;47.028;15.470;2022-08-01T14:08:47;3.83;;;1.77;;
44048;SDS011;29717;47.028;15.470;2022-08-01T14:11:14;2.10;;;1.50;;
44048;SDS011;29717;47.028;15.470;2022-08-01T14:13:41;3.30;;;1.55;;
44048;SDS011;29717;47.028;15.470;2022-08-01T14:16:08;2.33;;;1.42;;
44048;SDS011;29717;47.028;15.470;2022-08-01T14:18:36;1.27;;;1.13;;
44048;SDS011;29717;47.028;15.470;2022-08-01T14:21:04;1.10;;;1.00;;
44048;SDS011;29717;47.028;15.470;2022-08-01T14:23:31;1.83;;;1.00;;
44048;SDS011;29717;47.028;15.470;2022-08-01T14:25:58;1.20;;;0.80;;
44048;SDS011;29717;47.028;15.470;2022-08-01T14:28:25;1.45;;;1.20;;
44048;SDS011;29717;47.028;15.470;2022-08-01T14:30:53;0.85;;;0.85;;
44048;SDS011;29717;47.028;15.470;2022-08-01T14:33:20;1.63;;;1.00;;
44048;SDS011;29717;47.028;15.470;2022-08-01T14:35:47;2.10;;;0.98;;
44048;SDS011;29717;47.028;15.470;2022-08-01T14:38:16;1.55;;;0.82;;
44048;SDS011;29717;47.028;15.470;2022-08-01T14:40:42;1.35;;;0.73;;
44048;SDS011;29717;47.028;15.470;2022-08-01T14:43:12;2.78;;;0.90;;
44048;SDS011;29717;47.028;15.470;2022-08-01T14:45:39;2.40;;;0.70;;
44048;SDS011;29717;47.028;15.470;2022-08-01T14:48:05;1.50;;;0.70;;
44048;SDS011;29717;47.028;15.470;2022-08-01T14:50:32;0.88;;;0.70;;
44048;SDS011;29717;47.028;15.470;2022-08-01T14:52:59;2.05;;;1.20;;
44048;SDS011;29717;47.028;15.470;2022-08-01T14:55:27;1.13;;;1.00;;
44048;SDS011;29717;47.028;15.470;2022-08-01T14:57:54;1.63;;;1.10;;
44048;SDS011;29717;47.028;15.470;2022-08-01T15:00:21;1.92;;;1.10;;
44048;SDS011;29717;47.028;15.470;2022-08-01T15:02:48;1.33;;;0.93;;
44048;SDS011;29717;47.028;15.470;2022-08-01T15:05:15;1.48;;;1.00;;
44048;SDS011;29717;47.028;15.470;2022-08-01T15:07:42;2.97;;;1.73;;
44048;SDS011;29717;47.028;15.470;2022-08-01T15:10:09;3.13;;;1.60;;
44048;SDS011;29717;47.028;15.470;2022-08-01T15:12:37;2.78;;;1.45;;
44048;SDS011;29717;47.028;15.470;2022-08-01T15:15:05;3.33;;;1.48;;
44048;SDS011;29717;47.028;15.470;2022-08-01T15:17:32;3.58;;;1.75;;
44048;SDS011;29717;47.028;15.470;2022-08-01T15:20:00;3.97;;;1.42;;
44048;SDS011;29717;47.028;15.470;2022-08-01T15:22:27;2.47;;;1.60;;
44048;SDS011;29717;47.028;15.470;2022-08-01T15:24:55;1.73;;;1.40;;
44048;SDS011;29717;47.028;15.470;2022-08-01T15:27:22;3.72;;;1.83;;
44048;SDS011;29717;47.028;15.470;2022-08-01T15:29:50;1.50;;;1.40;;
44048;SDS011;29717;47.028;15.470;2022-08-01T15:32:17;6.45;;;1.90;;
44048;SDS011;29717;47.028;15.470;2022-08-01T15:34:44;3.65;;;1.70;;
44048;SDS011;29717;47.028;15.470;2022-08-01T15:37:11;3.13;;;1.65;;
44048;SDS011;29717;47.028;15.470;2022-08-01T15:39:38;2.13;;;1.67;;
44048;SDS011;29717;47.028;15.470;2022-08-01T15:42:06;2.85;;;1.80;;
44048;SDS011;29717;47.028;15.470;2022-08-01T15:44:33;2.78;;;2.05;;
44048;SDS011;29717;47.028;15.470;2022-08-01T15:47:01;5.35;;;1.80;;
44048;SDS011;29717;47.028;15.470;2022-08-01T15:49:28;3.10;;;1.52;;
44048;SDS011;29717;47.028;15.470;2022-08-01T15:51:55;1.80;;;1.60;;